createdAt,value
2022-12-17T00:02:45.494Z,-1.66
2022-12-17T00:05:31.376Z,-2.00
2022-12-17T00:08:18.436Z,-2.21
2022-12-17T00:11:04.674Z,-1.93
2022-12-17T00:13:50.842Z,-1.86
2022-12-17T00:16:37.826Z,-2.14
2022-12-17T00:19:24.115Z,-1.84
2022-12-17T00:22:10.150Z,-2.08
2022-12-17T00:24:56.492Z,-2.13
2022-12-17T00:27:42.482Z,-1.94
2022-12-17T00:30:32.254Z,-2.43
2022-12-17T00:33:17.785Z,-2.40
2022-12-17T00:36:27.055Z,-2.11
2022-12-17T00:39:12.549Z,-2.41
2022-12-17T00:41:58.946Z,-2.42
2022-12-17T00:44:44.639Z,-2.25
2022-12-17T00:47:31.067Z,-2.60
2022-12-17T00:50:16.896Z,-2.36
2022-12-17T00:53:03.004Z,-2.56
2022-12-17T00:55:49.229Z,-2.76
2022-12-17T00:58:35.257Z,-2.50
2022-12-17T01:01:21.162Z,-2.55
2022-12-17T01:04:07.415Z,-2.58
2022-12-17T01:06:53.699Z,-2.76
2022-12-17T01:09:40.119Z,-2.31
2022-12-17T01:12:26.941Z,-2.56
2022-12-17T01:15:13.976Z,-2.55
2022-12-17T01:17:59.814Z,-2.37
2022-12-17T01:20:46.044Z,-2.44
2022-12-17T01:23:33.169Z,-2.65
2022-12-17T01:26:21.507Z,-2.70
2022-12-17T01:29:07.578Z,-2.69
2022-12-17T01:31:53.725Z,-2.92
2022-12-17T01:34:39.829Z,-2.74
2022-12-17T01:37:26.166Z,-2.59
2022-12-17T01:40:11.955Z,-2.69
2022-12-17T01:43:05.613Z,-2.76
2022-12-17T01:45:57.883Z,-2.72
2022-12-17T01:48:50.863Z,-2.57
2022-12-17T01:51:37.575Z,-2.72
2022-12-17T01:54:24.321Z,-2.65
2022-12-17T01:57:10.384Z,-2.64
2022-12-17T02:00:19.916Z,-2.64
2022-12-17T02:03:06.081Z,-2.57
2022-12-17T02:06:11.010Z,-2.58
2022-12-17T02:09:32.084Z,-2.93
2022-12-17T02:12:47.220Z,-2.43
2022-12-17T02:15:59.454Z,-2.53
2022-12-17T02:18:55.067Z,-3.21
2022-12-17T02:21:43.384Z,-3.06
2022-12-17T02:24:49.425Z,-2.91
2022-12-17T02:27:36.969Z,-2.74
2022-12-17T02:30:25.880Z,-2.88
2022-12-17T02:33:13.253Z,-2.83
2022-12-17T02:36:13.911Z,-2.62
2022-12-17T02:38:59.991Z,-3.07
2022-12-17T02:41:58.313Z,-2.87
2022-12-17T02:44:46.313Z,-2.70
2022-12-17T02:47:33.972Z,-2.99
2022-12-17T02:50:20.208Z,-3.04
2022-12-17T02:53:07.673Z,-2.91
2022-12-17T02:55:55.275Z,-3.12
2022-12-17T02:58:41.771Z,-3.11
2022-12-17T03:01:27.668Z,-3.30
2022-12-17T03:04:18.663Z,-3.51
2022-12-17T03:07:05.015Z,-3.14
2022-12-17T03:09:51.605Z,-3.12
2022-12-17T03:12:37.541Z,-3.39
2022-12-17T03:15:23.899Z,-3.07
2022-12-17T03:18:09.650Z,-3.07
2022-12-17T03:20:55.681Z,-3.09
2022-12-17T03:23:41.899Z,-2.98
2022-12-17T03:26:28.022Z,-3.17
2022-12-17T03:29:27.344Z,-3.03
2022-12-17T03:32:13.375Z,-3.26
2022-12-17T03:34:59.263Z,-2.99
2022-12-17T03:37:45.351Z,-3.00
2022-12-17T03:40:30.969Z,-3.11
2022-12-17T03:43:16.983Z,-3.43
2022-12-17T03:46:10.912Z,-3.28
2022-12-17T03:48:57.451Z,-3.80
2022-12-17T03:51:43.484Z,-3.55
2022-12-17T03:54:29.741Z,-3.39
2022-12-17T03:57:16.557Z,-3.49
2022-12-17T04:00:02.772Z,-3.22
2022-12-17T04:02:58.173Z,-3.32
2022-12-17T04:05:44.123Z,-3.19
2022-12-17T04:08:29.894Z,-3.22
2022-12-17T04:11:15.950Z,-3.33
2022-12-17T04:14:01.680Z,-3.36
2022-12-17T04:16:47.937Z,-3.26
2022-12-17T04:19:33.842Z,-3.10
2022-12-17T04:22:20.063Z,-3.09
2022-12-17T04:25:06.032Z,-2.97
2022-12-17T04:27:52.292Z,-3.23
2022-12-17T04:30:37.958Z,-2.96
2022-12-17T04:33:24.070Z,-3.00
2022-12-17T04:36:09.825Z,-2.99
2022-12-17T04:38:56.028Z,-2.93
2022-12-17T04:41:41.892Z,-2.96
2022-12-17T04:44:28.156Z,-2.97
2022-12-17T04:47:13.876Z,-2.87
2022-12-17T04:49:59.889Z,-3.20
2022-12-17T04:52:45.894Z,-2.85
2022-12-17T04:55:31.983Z,-2.90
2022-12-17T04:58:24.656Z,-3.29
2022-12-17T05:01:12.170Z,-3.41
2022-12-17T05:03:58.997Z,-2.87
2022-12-17T05:06:45.048Z,-2.87
2022-12-17T05:09:30.868Z,-2.83
2022-12-17T05:12:17.033Z,-3.09
2022-12-17T05:15:03.044Z,-3.30
2022-12-17T05:17:49.308Z,-3.46
2022-12-17T05:20:35.081Z,-3.21
2022-12-17T05:23:25.951Z,-3.00
2022-12-17T05:26:22.150Z,-3.33
2022-12-17T05:29:14.010Z,-3.42
2022-12-17T05:32:12.091Z,-3.34
2022-12-17T05:34:58.471Z,-3.09
2022-12-17T05:37:44.514Z,-3.34
2022-12-17T05:40:31.018Z,-3.30
2022-12-17T05:43:25.254Z,-3.58
2022-12-17T05:46:11.533Z,-3.12
2022-12-17T05:48:57.634Z,-3.00
2022-12-17T05:51:43.649Z,-3.08
2022-12-17T05:54:29.701Z,-2.94
2022-12-17T05:57:16.007Z,-2.80
2022-12-17T06:00:01.779Z,-3.05
2022-12-17T06:02:58.384Z,-3.18
2022-12-17T06:05:44.465Z,-2.90
2022-12-17T06:08:30.721Z,-3.21
2022-12-17T06:11:18.390Z,-2.90
2022-12-17T06:14:05.775Z,-3.26
2022-12-17T06:16:51.902Z,-2.97
2022-12-17T06:19:37.967Z,-2.97
2022-12-17T06:22:23.693Z,-2.97
2022-12-17T06:25:09.858Z,-2.89
2022-12-17T06:27:55.441Z,-2.85
2022-12-17T06:30:41.562Z,-2.77
2022-12-17T06:33:29.435Z,-2.94
2022-12-17T06:36:22.216Z,-2.79
2022-12-17T06:39:09.281Z,-2.84
2022-12-17T06:42:00.564Z,-2.89
2022-12-17T06:44:49.696Z,-3.03
2022-12-17T06:47:36.409Z,-2.90
2022-12-17T06:50:23.174Z,-2.84
2022-12-17T06:53:22.985Z,-2.87
2022-12-17T06:56:09.037Z,-2.86
2022-12-17T06:58:55.163Z,-3.12
2022-12-17T07:01:41.115Z,-3.03
2022-12-17T07:04:27.585Z,-2.89
2022-12-17T07:07:13.227Z,-2.82
2022-12-17T07:09:59.321Z,-2.79
2022-12-17T07:12:45.347Z,-2.82
2022-12-17T07:15:31.877Z,-2.68
2022-12-17T07:18:20.491Z,-2.73
2022-12-17T07:21:07.730Z,-2.76
2022-12-17T07:23:53.724Z,-2.66
2022-12-17T07:26:50.425Z,-2.71
2022-12-17T07:29:36.403Z,-2.76
2022-12-17T07:32:22.454Z,-2.52
2022-12-17T07:35:08.177Z,-2.87
2022-12-17T07:37:54.211Z,-2.38
2022-12-17T07:40:40.330Z,-2.43
2022-12-17T07:43:33.225Z,-2.21
2022-12-17T07:46:19.254Z,-2.24
2022-12-17T07:49:25.667Z,-2.21
2022-12-17T07:52:12.854Z,-2.08
2022-12-17T07:54:59.375Z,-2.07
2022-12-17T07:57:45.032Z,-2.04
2022-12-17T08:00:31.589Z,-1.68
2022-12-17T08:03:18.692Z,-1.94
2022-12-17T08:06:04.697Z,-1.85
2022-12-17T08:08:50.868Z,-1.95
2022-12-17T08:11:37.115Z,-2.25
2022-12-17T08:14:22.803Z,-1.98
2022-12-17T08:17:08.899Z,-2.46
2022-12-17T08:19:54.900Z,-2.43
2022-12-17T08:22:40.844Z,-2.26
2022-12-17T08:25:34.689Z,-1.92
2022-12-17T08:28:48.985Z,-1.30
2022-12-17T08:31:26.941Z,-1.80
2022-12-17T08:34:12.959Z,-1.99
2022-12-17T08:36:58.824Z,-1.96
2022-12-17T08:39:44.907Z,-1.16
2022-12-17T08:42:30.791Z,0.86
2022-12-17T08:45:16.906Z,2.47
2022-12-17T08:48:04.276Z,2.18
2022-12-17T08:50:50.737Z,2.64
2022-12-17T08:53:37.208Z,2.37
2022-12-17T08:56:23.908Z,2.40
2022-12-17T08:59:09.600Z,2.10
2022-12-17T09:01:55.897Z,1.35
2022-12-17T09:04:41.727Z,1.08
2022-12-17T09:07:27.951Z,0.87
2022-12-17T09:10:13.714Z,-0.15
2022-12-17T09:13:04.683Z,0.04
2022-12-17T09:15:51.802Z,-0.09
2022-12-17T09:18:41.407Z,-0.02
2022-12-17T09:21:27.285Z,-0.15
2022-12-17T09:24:13.350Z,0.77
2022-12-17T09:26:59.683Z,1.44
2022-12-17T09:29:45.877Z,1.68
2022-12-17T09:32:31.564Z,2.79
2022-12-17T09:35:17.713Z,3.34
2022-12-17T09:38:10.760Z,2.58
2022-12-17T09:40:58.555Z,2.80
2022-12-17T09:44:05.870Z,3.09
2022-12-17T09:47:02.093Z,3.13
2022-12-17T09:49:48.357Z,3.34
2022-12-17T09:52:51.487Z,3.08
2022-12-17T09:55:52.734Z,2.48
2022-12-17T09:58:44.260Z,2.16
2022-12-17T10:01:56.293Z,1.87
2022-12-17T10:04:53.545Z,1.74
2022-12-17T10:07:43.108Z,1.46
2022-12-17T10:10:34.628Z,1.29
2022-12-17T10:13:20.419Z,1.39
2022-12-17T10:16:06.614Z,1.30
2022-12-17T10:18:52.318Z,0.91
2022-12-17T10:21:38.871Z,0.89
2022-12-17T10:24:29.206Z,0.80
2022-12-17T10:27:16.162Z,0.96
2022-12-17T10:30:03.390Z,0.66
2022-12-17T10:32:49.715Z,0.71
2022-12-17T10:35:53.580Z,0.52
2022-12-17T10:38:46.286Z,0.43
2022-12-17T10:41:37.712Z,0.75
2022-12-17T10:44:48.703Z,0.33
2022-12-17T10:47:35.830Z,0.38
2022-12-17T10:50:28.102Z,0.12
2022-12-17T10:53:14.412Z,0.40
2022-12-17T10:56:15.107Z,0.04
2022-12-17T10:59:10.844Z,0.13
2022-12-17T11:02:01.158Z,0.07
2022-12-17T11:04:49.767Z,-0.13
2022-12-17T11:07:57.432Z,0.09
2022-12-17T11:10:46.642Z,0.01
2022-12-17T11:13:48.180Z,0.31
2022-12-17T11:16:48.595Z,0.29
2022-12-17T11:19:57.132Z,0.17
2022-12-17T11:22:56.153Z,0.08
2022-12-17T11:25:52.880Z,-0.03
2022-12-17T11:28:45.945Z,-0.18
2022-12-17T11:31:31.609Z,0.00
2022-12-17T11:34:36.973Z,0.27
2022-12-17T11:37:30.824Z,0.54
2022-12-17T11:40:23.791Z,0.42
2022-12-17T11:43:34.191Z,0.17
2022-12-17T11:46:27.929Z,0.29
2022-12-17T11:49:28.847Z,0.38
2022-12-17T11:52:25.987Z,0.28
2022-12-17T11:55:33.982Z,0.34
2022-12-17T11:58:23.769Z,0.21
2022-12-17T12:01:41.270Z,-0.01
2022-12-17T12:04:39.775Z,0.17
2022-12-17T12:07:44.744Z,0.16
2022-12-17T12:10:44.407Z,0.16
2022-12-17T12:13:37.684Z,-0.05
2022-12-17T12:16:30.577Z,-0.11
2022-12-17T12:19:36.656Z,-0.16
2022-12-17T12:22:31.657Z,0.05
2022-12-17T12:25:43.752Z,-0.02
2022-12-17T12:29:06.824Z,0.16
2022-12-17T12:32:14.128Z,-0.10
2022-12-17T12:35:22.771Z,0.08
2022-12-17T12:38:08.977Z,0.18
2022-12-17T12:41:25.997Z,0.08
2022-12-17T12:44:18.365Z,0.05
2022-12-17T12:47:17.140Z,-0.06
2022-12-17T12:50:09.290Z,-0.29
2022-12-17T12:52:55.889Z,-0.47
2022-12-17T12:55:42.153Z,-0.23
2022-12-17T12:58:48.799Z,-0.36
2022-12-17T13:01:35.591Z,-0.30
2022-12-17T13:04:40.919Z,-0.29
2022-12-17T13:07:21.599Z,-0.44
2022-12-17T13:09:52.633Z,-0.63
2022-12-17T13:12:25.048Z,-0.66
2022-12-17T13:14:52.472Z,-0.62
2022-12-17T13:17:46.265Z,-0.74
2022-12-17T13:20:25.931Z,-1.08
2022-12-17T13:23:06.466Z,-0.79
2022-12-17T13:25:33.762Z,-0.59
2022-12-17T13:28:01.890Z,-0.39
2022-12-17T13:30:32.212Z,-0.55
2022-12-17T13:33:23.697Z,-0.64
2022-12-17T13:36:25.207Z,-0.51
2022-12-17T13:39:08.157Z,-0.78
2022-12-17T13:41:36.634Z,-1.03
2022-12-17T13:44:22.507Z,-1.13
2022-12-17T13:46:52.053Z,-1.03
2022-12-17T13:49:22.689Z,-1.01
2022-12-17T13:52:20.403Z,-0.98
2022-12-17T13:54:48.272Z,-0.88
2022-12-17T13:57:18.230Z,-0.55
2022-12-17T13:59:54.468Z,-0.77
2022-12-17T14:02:28.607Z,-1.09
2022-12-17T14:05:07.243Z,-1.14
2022-12-17T14:07:39.053Z,-1.32
2022-12-17T14:10:16.892Z,-0.97
2022-12-17T14:12:47.167Z,-1.35
2022-12-17T14:15:25.598Z,-1.20
2022-12-17T14:17:54.703Z,-1.39
2022-12-17T14:20:25.531Z,-1.44
2022-12-17T14:22:57.138Z,-1.94
2022-12-17T14:25:29.568Z,-1.38
2022-12-17T14:28:02.591Z,-1.28
2022-12-17T14:30:33.290Z,-1.37
2022-12-17T14:33:00.538Z,-1.33
2022-12-17T14:35:32.015Z,-1.64
2022-12-17T14:37:59.704Z,-1.13
2022-12-17T14:40:27.861Z,-1.31
2022-12-17T14:43:00.180Z,-1.54
2022-12-17T14:45:29.148Z,-1.40
2022-12-17T14:48:01.472Z,-1.62
2022-12-17T14:50:33.382Z,-1.62
2022-12-17T14:53:03.451Z,-1.77
2022-12-17T14:55:31.399Z,-1.58
2022-12-17T14:58:13.843Z,-1.75
2022-12-17T15:00:48.537Z,-1.67
2022-12-17T15:03:30.334Z,-1.52
2022-12-17T15:06:00.996Z,-1.62
2022-12-17T15:08:36.251Z,-1.59
2022-12-17T15:11:04.189Z,-1.45
2022-12-17T15:13:31.701Z,-1.45
2022-12-17T15:15:59.308Z,-1.59
2022-12-17T15:18:26.603Z,-1.59
2022-12-17T15:20:54.187Z,-1.40
2022-12-17T15:23:23.273Z,-1.37
2022-12-17T15:25:52.904Z,-1.68
2022-12-17T15:28:21.082Z,-1.30
2022-12-17T15:30:50.041Z,-1.47
2022-12-17T15:33:17.460Z,-1.41
2022-12-17T15:35:45.376Z,-1.41
2022-12-17T15:38:13.180Z,-1.69
2022-12-17T15:40:41.273Z,-1.55
2022-12-17T15:43:14.042Z,-1.65
2022-12-17T15:45:43.978Z,-1.60
2022-12-17T15:48:12.864Z,-1.70
2022-12-17T15:50:40.571Z,-1.68
2022-12-17T15:53:09.140Z,-1.66
2022-12-17T15:55:37.570Z,-1.60
2022-12-17T15:58:05.844Z,-1.55
2022-12-17T16:00:33.426Z,-1.75
2022-12-17T16:03:01.047Z,-1.51
2022-12-17T16:05:28.786Z,-1.71
2022-12-17T16:07:59.216Z,-1.79
2022-12-17T16:10:27.003Z,-1.97
2022-12-17T16:12:54.195Z,-1.91
2022-12-17T16:15:21.730Z,-1.93
2022-12-17T16:17:48.907Z,-1.92
2022-12-17T16:20:16.503Z,-1.94
2022-12-17T16:22:44.414Z,-2.02
2022-12-17T16:25:12.468Z,-2.11
2022-12-17T16:27:39.706Z,-2.11
2022-12-17T16:30:07.875Z,-2.16
2022-12-17T16:32:36.757Z,-2.38
2022-12-17T16:35:05.305Z,-2.28
2022-12-17T16:37:32.483Z,-2.28
2022-12-17T16:40:00.539Z,-2.51
2022-12-17T16:42:28.432Z,-2.33
2022-12-17T16:44:55.883Z,-2.56
2022-12-17T16:47:23.258Z,-2.61
2022-12-17T16:49:51.112Z,-2.58
2022-12-17T16:52:18.508Z,-2.79
2022-12-17T16:54:46.026Z,-2.65
2022-12-17T16:57:13.238Z,-2.73
2022-12-17T16:59:40.728Z,-2.83
2022-12-17T17:02:15.561Z,-2.72
2022-12-17T17:04:43.228Z,-2.80
2022-12-17T17:07:10.588Z,-2.99
2022-12-17T17:09:38.867Z,-3.19
2022-12-17T17:12:07.625Z,-3.11
2022-12-17T17:14:35.336Z,-3.09
2022-12-17T17:17:02.666Z,-3.07
2022-12-17T17:19:30.139Z,-3.07
2022-12-17T17:21:57.365Z,-3.11
2022-12-17T17:24:25.972Z,-3.13
2022-12-17T17:26:55.645Z,-2.80
2022-12-17T17:29:23.303Z,-3.25
2022-12-17T17:32:09.861Z,-3.22
2022-12-17T17:34:39.665Z,-3.36
2022-12-17T17:37:06.878Z,-3.36
2022-12-17T17:39:34.775Z,-3.53
2022-12-17T17:42:02.143Z,-3.57
2022-12-17T17:44:29.745Z,-3.61
2022-12-17T17:46:57.245Z,-4.00
2022-12-17T17:49:25.285Z,-3.58
2022-12-17T17:52:08.810Z,-3.75
2022-12-17T17:54:36.938Z,-3.84
2022-12-17T17:57:04.254Z,-3.42
2022-12-17T17:59:34.059Z,-3.40
2022-12-17T18:02:02.923Z,-3.49
2022-12-17T18:04:31.180Z,-3.31
2022-12-17T18:09:46.657Z,-3.20
2022-12-17T18:12:32.332Z,-3.24
2022-12-17T18:15:17.440Z,-3.44
2022-12-17T18:17:49.381Z,-3.36
2022-12-17T18:20:17.653Z,-3.16
2022-12-17T18:22:46.480Z,-3.44
2022-12-17T18:25:16.422Z,-3.29
2022-12-17T18:27:44.364Z,-3.47
2022-12-17T18:30:12.553Z,-3.07
2022-12-17T18:32:39.917Z,-3.18
2022-12-17T18:35:08.074Z,-3.34
2022-12-17T18:37:35.483Z,-3.21
2022-12-17T18:40:06.421Z,-3.30
2022-12-17T18:42:52.948Z,-3.19
2022-12-17T18:45:20.483Z,-2.96
2022-12-17T18:47:47.907Z,-3.00
2022-12-17T18:50:15.507Z,-3.08
2022-12-17T18:52:42.805Z,-2.95
2022-12-17T18:55:10.374Z,-2.92
2022-12-17T18:57:37.646Z,-3.00
2022-12-17T19:00:06.796Z,-3.05
2022-12-17T19:02:34.141Z,-3.19
2022-12-17T19:05:02.177Z,-2.82
2022-12-17T19:07:29.384Z,-3.02
2022-12-17T19:09:56.859Z,-3.29
2022-12-17T19:12:24.171Z,-3.07
2022-12-17T19:14:51.699Z,-3.15
2022-12-17T19:17:18.935Z,-2.99
2022-12-17T19:19:47.525Z,-3.27
2022-12-17T19:22:14.705Z,-3.15
2022-12-17T19:24:42.238Z,-3.37
2022-12-17T19:27:09.524Z,-3.08
2022-12-17T19:29:37.031Z,-3.11
2022-12-17T19:32:04.585Z,-3.21
2022-12-17T19:34:32.505Z,-2.93
2022-12-17T19:36:59.765Z,-3.18
2022-12-17T19:39:27.328Z,-3.54
2022-12-17T19:41:54.577Z,-3.59
2022-12-17T19:44:22.255Z,-3.45
2022-12-17T19:46:49.588Z,-3.64
2022-12-17T19:49:17.554Z,-3.67
2022-12-17T19:51:45.615Z,-3.84
2022-12-17T19:54:15.376Z,-3.90
2022-12-17T19:56:45.151Z,-3.90
2022-12-17T19:59:13.449Z,-3.90
2022-12-17T20:01:44.247Z,-4.10
2022-12-17T20:04:13.489Z,-3.48
2022-12-17T20:06:43.426Z,-3.63
2022-12-17T20:09:11.764Z,-3.62
2022-12-17T20:11:39.744Z,-3.75
2022-12-17T20:14:11.599Z,-3.74
2022-12-17T20:16:49.969Z,-3.68
2022-12-17T20:19:25.450Z,-3.87
2022-12-17T20:21:53.596Z,-4.17
2022-12-17T20:24:30.820Z,-3.87
2022-12-17T20:26:59.963Z,-3.80
2022-12-17T20:29:27.878Z,-4.20
2022-12-17T20:31:55.858Z,-4.18
2022-12-17T20:34:24.413Z,-4.32
2022-12-17T20:36:52.847Z,-4.21
2022-12-17T20:39:26.190Z,-4.26
2022-12-17T20:41:55.102Z,-4.66
2022-12-17T20:44:22.763Z,-4.47
2022-12-17T20:46:50.016Z,-4.74
2022-12-17T20:49:17.551Z,-4.47
2022-12-17T20:51:44.752Z,-4.44
2022-12-17T20:54:12.408Z,-4.80
2022-12-17T20:56:40.806Z,-4.50
2022-12-17T20:59:13.194Z,-4.80
2022-12-17T21:01:40.882Z,-4.57
2022-12-17T21:04:12.026Z,-4.63
2022-12-17T21:06:47.358Z,-4.81
2022-12-17T21:09:18.603Z,-4.47
2022-12-17T21:11:46.239Z,-4.63
2022-12-17T21:14:16.414Z,-4.25
2022-12-17T21:16:44.934Z,-4.43
2022-12-17T21:19:18.056Z,-4.58
2022-12-17T21:21:45.414Z,-4.56
2022-12-17T21:24:13.204Z,-4.76
2022-12-17T21:26:43.270Z,-4.66
2022-12-17T21:29:11.211Z,-4.41
2022-12-17T21:31:41.471Z,-4.56
2022-12-17T21:34:12.960Z,-4.40
2022-12-17T21:36:41.125Z,-4.69
2022-12-17T21:39:10.047Z,-4.49
2022-12-17T21:41:44.910Z,-4.27
2022-12-17T21:44:15.292Z,-4.54
2022-12-17T21:46:44.590Z,-4.12
2022-12-17T21:49:18.227Z,-4.26
2022-12-17T21:51:45.731Z,-4.46
2022-12-17T21:54:19.005Z,-4.48
2022-12-17T21:56:47.764Z,-4.70
2022-12-17T21:59:15.673Z,-4.90
2022-12-17T22:01:43.164Z,-4.72
2022-12-17T22:04:10.795Z,-4.42
2022-12-17T22:06:46.617Z,-4.50
2022-12-17T22:09:42.376Z,-4.25
2022-12-17T22:12:27.517Z,-4.36
2022-12-17T22:14:55.098Z,-4.42
2022-12-17T22:17:22.878Z,-4.30
2022-12-17T22:19:50.538Z,-4.48
2022-12-17T22:22:17.722Z,-4.43
2022-12-17T22:24:45.230Z,-4.41
2022-12-17T22:27:12.553Z,-4.28
2022-12-17T22:29:58.600Z,-4.94
2022-12-17T22:32:44.333Z,-4.72
2022-12-17T22:36:26.387Z,-4.45
2022-12-17T22:41:23.682Z,-4.28
2022-12-17T22:44:36.714Z,-4.84
2022-12-17T22:44:51.916Z,-4.53
2022-12-17T22:46:23.335Z,-4.72
2022-12-17T22:48:50.524Z,-4.71
2022-12-17T22:51:25.604Z,-5.23
2022-12-17T22:54:09.121Z,-4.97
2022-12-17T22:57:16.883Z,-5.05
2022-12-17T22:59:26.080Z,-5.03
2022-12-17T23:01:53.783Z,-4.89
2022-12-17T23:04:21.250Z,-5.28
2022-12-17T23:06:48.791Z,-5.33
2022-12-17T23:09:19.427Z,-5.38
2022-12-17T23:11:48.888Z,-5.24
2022-12-17T23:14:16.768Z,-4.84
2022-12-17T23:16:45.242Z,-5.03
2022-12-17T23:19:13.468Z,-5.26
2022-12-17T23:21:41.053Z,-5.32
2022-12-17T23:24:08.801Z,-5.46
2022-12-17T23:26:37.599Z,-5.25
2022-12-17T23:29:08.145Z,-5.64
2022-12-17T23:31:38.459Z,-5.16
2022-12-17T23:34:06.974Z,-5.53
2022-12-17T23:36:37.038Z,-5.20
2022-12-17T23:39:05.643Z,-5.69
2022-12-17T23:41:33.375Z,-5.51
2022-12-17T23:44:00.828Z,-5.26
2022-12-17T23:46:30.498Z,-5.50
2022-12-17T23:48:57.965Z,-5.69
2022-12-17T23:51:26.196Z,-5.28
2022-12-17T23:53:53.403Z,-5.39
2022-12-17T23:56:26.245Z,-5.17
2022-12-17T23:59:00.053Z,-5.60
